createdAt,value
2019-04-03T00:00:04.731Z,12.43
2019-04-03T00:02:34.800Z,9.50
2019-04-03T00:05:05.139Z,11.28
2019-04-03T00:07:35.915Z,12.98
2019-04-03T00:10:07.222Z,8.78
2019-04-03T00:12:36.581Z,9.70
2019-04-03T00:15:07.372Z,9.55
2019-04-03T00:17:36.521Z,9.68
2019-04-03T00:20:06.690Z,14.93
2019-04-03T00:22:36.042Z,8.60
2019-04-03T00:25:05.680Z,11.20
2019-04-03T00:27:34.712Z,7.92
2019-04-03T00:30:04.764Z,7.53
2019-04-03T00:32:33.796Z,7.50
2019-04-03T00:35:02.876Z,7.10
2019-04-03T00:37:31.996Z,8.25
2019-04-03T00:40:01.103Z,9.00
2019-04-03T00:42:30.190Z,8.78
2019-04-03T00:44:59.123Z,9.63
2019-04-03T00:47:28.111Z,10.65
2019-04-03T00:49:57.201Z,10.72
2019-04-03T00:52:27.583Z,9.05
2019-04-03T00:54:57.256Z,8.05
2019-04-03T00:57:26.878Z,11.18
2019-04-03T00:59:56.510Z,10.63
2019-04-03T01:02:27.936Z,10.05
2019-04-03T01:04:58.403Z,9.05
2019-04-03T01:07:29.300Z,11.68
2019-04-03T01:09:59.572Z,9.75
2019-04-03T01:12:30.875Z,11.18
2019-04-03T01:15:01.640Z,10.38
2019-04-03T01:17:30.538Z,11.18
2019-04-03T01:19:59.547Z,9.75
2019-04-03T01:22:28.663Z,9.70
2019-04-03T01:24:57.795Z,11.45
2019-04-03T01:27:26.784Z,11.45
2019-04-03T01:29:55.947Z,10.28
2019-04-03T01:32:25.072Z,11.18
2019-04-03T01:34:54.152Z,12.43
2019-04-03T01:37:23.216Z,10.15
2019-04-03T01:39:52.277Z,13.53
2019-04-03T01:42:22.399Z,13.43
2019-04-03T01:44:51.681Z,12.18
2019-04-03T01:47:20.728Z,10.40
2019-04-03T01:49:49.848Z,13.75
2019-04-03T01:52:18.990Z,12.30
2019-04-03T01:54:48.100Z,10.13
2019-04-03T01:57:17.229Z,15.88
2019-04-03T01:59:46.428Z,14.73
2019-04-03T02:02:15.600Z,9.88
2019-04-03T02:04:44.755Z,11.18
2019-04-03T02:07:14.903Z,12.73
2019-04-03T02:09:46.254Z,10.20
2019-04-03T02:12:15.113Z,9.95
2019-04-03T02:14:44.284Z,11.38
2019-04-03T02:17:13.462Z,11.75
2019-04-03T02:19:42.579Z,22.50
2019-04-03T02:22:11.628Z,20.48
2019-04-03T02:24:41.046Z,17.32
2019-04-03T02:27:10.202Z,16.17
2019-04-03T02:29:39.847Z,15.30
2019-04-03T02:32:09.729Z,18.05
2019-04-03T02:34:39.030Z,16.52
2019-04-03T02:37:08.108Z,15.38
2019-04-03T02:39:37.298Z,15.03
2019-04-03T02:42:08.515Z,15.30
2019-04-03T02:44:37.486Z,14.58
2019-04-03T02:47:06.436Z,16.57
2019-04-03T02:49:35.529Z,19.60
2019-04-03T02:52:04.833Z,12.43
2019-04-03T02:54:37.031Z,15.38
2019-04-03T02:57:06.123Z,14.28
2019-04-03T02:59:35.278Z,11.73
2019-04-03T03:02:04.426Z,13.85
2019-04-03T03:04:33.907Z,17.67
2019-04-03T03:07:04.472Z,15.15
2019-04-03T03:09:34.179Z,20.88
2019-04-03T03:12:03.747Z,12.70
2019-04-03T03:14:33.110Z,12.20
2019-04-03T03:17:02.290Z,11.93
2019-04-03T03:19:33.018Z,14.28
2019-04-03T03:22:03.041Z,15.72
2019-04-03T03:24:34.813Z,14.18
2019-04-03T03:27:08.068Z,13.50
2019-04-03T03:29:35.704Z,13.45
2019-04-03T03:32:15.715Z,14.38
2019-04-03T03:34:50.440Z,14.43
2019-04-03T03:37:07.253Z,15.53
2019-04-03T03:39:36.803Z,13.75
2019-04-03T03:42:06.301Z,12.10
2019-04-03T03:44:37.010Z,10.55
2019-04-03T03:47:06.402Z,13.00
2019-04-03T03:49:36.295Z,15.08
2019-04-03T03:52:06.283Z,11.70
2019-04-03T03:54:35.910Z,13.53
2019-04-03T03:57:07.200Z,12.73
2019-04-03T03:59:37.022Z,14.83
2019-04-03T04:02:06.600Z,13.62
2019-04-03T04:04:36.396Z,13.30
2019-04-03T04:07:05.845Z,15.32
2019-04-03T04:09:35.672Z,14.05
2019-04-03T04:12:06.899Z,15.28
2019-04-03T04:14:37.258Z,14.53
2019-04-03T04:17:08.717Z,14.50
2019-04-03T04:19:37.763Z,12.60
2019-04-03T04:22:06.996Z,14.55
2019-04-03T04:24:36.146Z,14.53
2019-04-03T04:27:05.366Z,16.65
2019-04-03T04:29:34.482Z,14.73
2019-04-03T04:32:03.594Z,12.93
2019-04-03T04:34:32.662Z,12.73
2019-04-03T04:37:02.866Z,18.50
2019-04-03T04:39:32.672Z,18.65
2019-04-03T04:42:03.480Z,16.95
2019-04-03T04:44:32.655Z,14.28
2019-04-03T04:47:01.734Z,14.30
2019-04-03T04:49:30.958Z,16.15
2019-04-03T04:52:00.213Z,15.68
2019-04-03T04:54:30.622Z,14.93
2019-04-03T04:57:00.031Z,15.28
2019-04-03T04:59:29.139Z,12.65
2019-04-03T05:01:58.464Z,18.12
2019-04-03T05:04:27.567Z,15.35
2019-04-03T05:06:59.676Z,20.37
2019-04-03T05:09:27.404Z,17.23
2019-04-03T05:11:56.418Z,20.20
2019-04-03T05:14:25.435Z,25.92
2019-04-03T05:16:55.886Z,24.35
2019-04-03T05:19:25.367Z,25.90
2019-04-03T05:21:54.481Z,27.30
2019-04-03T05:24:23.643Z,28.90
2019-04-03T05:26:52.832Z,21.07
2019-04-03T05:29:21.940Z,27.48
2019-04-03T05:31:51.102Z,32.48
2019-04-03T05:34:20.200Z,27.22
2019-04-03T05:36:49.284Z,25.62
2019-04-03T05:39:18.351Z,27.58
2019-04-03T05:41:47.679Z,23.18
2019-04-03T05:44:16.985Z,37.67
2019-04-03T05:46:46.439Z,33.42
2019-04-03T05:49:15.501Z,27.55
2019-04-03T05:51:44.694Z,23.15
2019-04-03T05:54:14.732Z,33.73
2019-04-03T05:56:44.262Z,28.05
2019-04-03T05:59:13.681Z,21.00
2019-04-03T06:01:46.060Z,18.25
2019-04-03T06:04:13.725Z,20.80
2019-04-03T06:06:46.042Z,17.57
2019-04-03T06:09:13.668Z,19.77
2019-04-03T06:11:42.955Z,17.90
2019-04-03T06:14:12.139Z,18.65
2019-04-03T06:16:41.292Z,20.97
2019-04-03T06:19:10.458Z,16.05
2019-04-03T06:21:39.561Z,17.95
2019-04-03T06:24:08.718Z,23.73
2019-04-03T06:26:38.485Z,19.37
2019-04-03T06:29:08.220Z,14.53
2019-04-03T06:31:37.504Z,14.65
2019-04-03T06:34:07.632Z,16.48
2019-04-03T06:36:37.216Z,18.80
2019-04-03T06:39:08.050Z,16.82
2019-04-03T06:41:37.148Z,20.90
2019-04-03T06:44:06.232Z,18.27
2019-04-03T06:46:35.558Z,15.30
2019-04-03T06:49:07.971Z,16.87
2019-04-03T06:51:35.779Z,18.65
2019-04-03T06:54:07.629Z,16.17
2019-04-03T06:56:35.888Z,15.63
2019-04-03T06:59:05.080Z,15.00
2019-04-03T07:01:34.206Z,16.57
2019-04-03T07:04:06.466Z,19.10
2019-04-03T07:06:36.533Z,22.90
2019-04-03T07:09:07.480Z,18.52
2019-04-03T07:11:36.541Z,21.80
2019-04-03T07:14:05.748Z,16.62
2019-04-03T07:16:37.488Z,16.77
2019-04-03T07:19:07.474Z,14.68
2019-04-03T07:21:36.175Z,17.52
2019-04-03T07:24:25.461Z,14.53
2019-04-03T07:26:54.499Z,17.23
2019-04-03T07:29:25.548Z,20.32
2019-04-03T07:31:55.169Z,16.02
2019-04-03T07:34:24.856Z,21.68
2019-04-03T07:36:54.124Z,17.05
2019-04-03T07:39:23.268Z,19.42
2019-04-03T07:41:54.420Z,20.27
2019-04-03T07:44:23.276Z,18.70
2019-04-03T07:46:54.786Z,20.77
2019-04-03T07:49:23.074Z,17.50
2019-04-03T07:51:51.991Z,16.37
2019-04-03T07:54:21.967Z,15.35
2019-04-03T07:56:52.092Z,18.67
2019-04-03T07:59:21.578Z,16.15
2019-04-03T08:01:50.845Z,15.70
2019-04-03T08:04:20.100Z,15.90
2019-04-03T08:06:49.249Z,19.00
2019-04-03T08:09:18.346Z,15.85
2019-04-03T08:11:47.695Z,18.57
2019-04-03T08:14:19.216Z,18.77
2019-04-03T08:16:48.168Z,18.00
2019-04-03T08:19:18.044Z,14.60
2019-04-03T08:21:47.036Z,16.25
2019-04-03T08:24:16.089Z,15.10
2019-04-03T08:26:45.035Z,20.23
2019-04-03T08:29:14.162Z,17.50
2019-04-03T08:31:47.726Z,20.32
2019-04-03T08:34:16.798Z,16.12
2019-04-03T08:36:44.763Z,17.67
2019-04-03T08:39:16.035Z,16.45
2019-04-03T08:41:44.503Z,16.93
2019-04-03T08:44:13.579Z,20.23
2019-04-03T08:46:43.798Z,16.35
2019-04-03T08:49:13.070Z,18.17
2019-04-03T08:51:42.145Z,17.75
2019-04-03T08:54:11.389Z,25.25
2019-04-03T08:56:40.587Z,17.65
2019-04-03T08:59:12.538Z,17.50
2019-04-03T09:01:40.378Z,16.45
2019-04-03T09:04:09.445Z,19.80
2019-04-03T09:06:38.448Z,19.87
2019-04-03T09:09:09.770Z,20.05
2019-04-03T09:11:38.836Z,18.45
2019-04-03T09:14:07.957Z,19.98
2019-04-03T09:16:37.003Z,19.25
2019-04-03T09:19:06.234Z,19.17
2019-04-03T09:21:35.310Z,18.42
2019-04-03T09:24:04.373Z,21.30
2019-04-03T09:26:37.146Z,21.00
2019-04-03T09:29:04.498Z,21.42
2019-04-03T09:31:33.690Z,23.20
2019-04-03T09:34:03.221Z,18.45
2019-04-03T09:36:34.342Z,21.33
2019-04-03T09:39:04.745Z,21.45
2019-04-03T09:41:33.889Z,18.67
2019-04-03T09:44:03.156Z,23.02
2019-04-03T09:46:32.467Z,17.42
2019-04-03T09:49:01.454Z,19.50
2019-04-03T09:51:30.578Z,20.15
2019-04-03T09:53:59.706Z,18.90
2019-04-03T09:56:28.890Z,20.45
2019-04-03T09:58:58.160Z,20.57
2019-04-03T10:01:47.886Z,21.60
2019-04-03T10:04:20.056Z,19.45
2019-04-03T10:06:47.913Z,18.77
2019-04-03T10:09:16.991Z,20.02
2019-04-03T10:11:46.075Z,18.98
2019-04-03T10:14:15.099Z,17.15
2019-04-03T10:16:44.294Z,25.80
2019-04-03T10:19:14.598Z,21.35
2019-04-03T10:21:43.756Z,22.87
2019-04-03T10:24:12.852Z,19.85
2019-04-03T10:26:41.915Z,17.25
2019-04-03T10:29:10.995Z,23.52
2019-04-03T10:31:39.909Z,22.50
2019-04-03T10:34:08.937Z,15.85
2019-04-03T10:36:57.216Z,21.65
2019-04-03T10:39:26.550Z,18.32
2019-04-03T10:41:56.032Z,20.30
2019-04-03T10:44:25.261Z,21.55
2019-04-03T10:46:54.440Z,18.05
2019-04-03T10:49:23.801Z,18.50
2019-04-03T10:51:52.983Z,21.70
2019-04-03T10:54:24.416Z,19.23
2019-04-03T10:56:52.797Z,21.42
2019-04-03T10:59:21.870Z,18.37
2019-04-03T11:01:51.151Z,17.95
2019-04-03T11:04:20.285Z,28.17
2019-04-03T11:06:49.292Z,17.98
2019-04-03T11:09:18.378Z,18.15
2019-04-03T11:11:47.532Z,19.95
2019-04-03T11:14:16.681Z,16.62
2019-04-03T11:16:46.530Z,18.10
2019-04-03T11:19:19.018Z,17.25
2019-04-03T11:21:47.174Z,24.05
2019-04-03T11:24:16.854Z,15.53
2019-04-03T11:26:46.256Z,17.35
2019-04-03T11:29:15.346Z,17.17
2019-04-03T11:31:44.445Z,15.70
2019-04-03T11:34:16.727Z,16.80
2019-04-03T11:36:44.388Z,11.28
2019-04-03T11:39:16.113Z,11.83
2019-04-03T11:41:44.542Z,13.48
2019-04-03T11:44:13.881Z,10.13
2019-04-03T11:46:43.397Z,8.10
2019-04-03T11:49:12.543Z,7.72
2019-04-03T11:51:41.754Z,7.75
2019-04-03T11:54:10.877Z,10.20
2019-04-03T11:56:40.270Z,6.47
2019-04-03T11:59:09.564Z,5.08
2019-04-03T12:01:38.777Z,7.15
2019-04-03T12:04:07.790Z,7.25
2019-04-03T12:06:36.882Z,5.05
2019-04-03T12:09:08.358Z,10.13
2019-04-03T12:11:38.382Z,9.07
2019-04-03T12:14:08.480Z,6.30
2019-04-03T12:16:37.551Z,7.80
2019-04-03T12:19:07.071Z,8.00
2019-04-03T12:21:36.162Z,5.10
2019-04-03T12:24:05.233Z,5.30
2019-04-03T12:26:34.292Z,5.35
2019-04-03T12:29:03.700Z,8.43
2019-04-03T12:31:33.787Z,7.10
2019-04-03T12:34:05.151Z,6.92
2019-04-03T12:36:33.582Z,6.35
2019-04-03T12:39:02.655Z,4.67
2019-04-03T12:41:32.001Z,7.10
2019-04-03T12:44:01.322Z,7.95
2019-04-03T12:46:37.834Z,7.67
2019-04-03T12:49:08.831Z,4.97
2019-04-03T12:51:37.960Z,9.28
2019-04-03T12:54:07.329Z,7.12
2019-04-03T12:56:36.498Z,11.40
2019-04-03T12:59:07.424Z,6.08
2019-04-03T13:01:36.539Z,4.72
2019-04-03T13:04:05.756Z,5.47
2019-04-03T13:06:34.910Z,8.40
2019-04-03T13:09:06.130Z,4.67
2019-04-03T13:11:35.280Z,6.72
2019-04-03T13:14:04.856Z,5.58
2019-04-03T13:16:34.018Z,4.12
2019-04-03T13:19:03.062Z,4.80
2019-04-03T13:21:32.259Z,5.08
2019-04-03T13:24:01.175Z,3.80
2019-04-03T13:26:30.593Z,5.22
2019-04-03T13:28:59.679Z,3.77
2019-04-03T13:31:28.835Z,7.00
2019-04-03T13:34:17.031Z,8.15
2019-04-03T13:36:46.130Z,8.55
2019-04-03T13:39:15.490Z,3.15
2019-04-03T13:41:44.956Z,5.62
2019-04-03T13:44:14.498Z,3.00
2019-04-03T13:46:43.610Z,6.60
2019-04-03T13:49:12.798Z,8.88
2019-04-03T13:51:41.779Z,8.03
2019-04-03T13:54:10.862Z,5.45
2019-04-03T13:56:42.221Z,7.35
2019-04-03T13:59:10.802Z,4.42
2019-04-03T14:01:40.597Z,10.05
2019-04-03T14:04:10.625Z,4.25
2019-04-03T14:06:39.806Z,8.30
2019-04-03T14:09:08.855Z,3.92
2019-04-03T14:11:37.951Z,3.10
2019-04-03T14:14:06.943Z,2.58
2019-04-03T14:16:36.091Z,2.37
2019-04-03T14:19:05.153Z,3.12
2019-04-03T14:21:35.737Z,5.20
2019-04-03T14:24:07.132Z,1.55
2019-04-03T14:26:35.935Z,7.75
2019-04-03T14:29:07.686Z,2.60
2019-04-03T14:31:37.678Z,2.98
2019-04-03T14:34:06.561Z,3.35
2019-04-03T14:36:35.881Z,2.05
2019-04-03T14:39:08.466Z,3.45
2019-04-03T14:41:37.690Z,7.83
2019-04-03T14:44:07.566Z,2.05
2019-04-03T14:46:37.340Z,2.92
2019-04-03T14:49:06.772Z,7.25
2019-04-03T14:51:35.916Z,1.70
2019-04-03T14:54:07.735Z,3.37
2019-04-03T14:56:36.046Z,4.03
2019-04-03T14:59:05.275Z,6.03
2019-04-03T15:01:34.198Z,3.17
2019-04-03T15:04:03.263Z,4.08
2019-04-03T15:06:32.260Z,6.25
2019-04-03T15:09:01.371Z,7.10
2019-04-03T15:11:30.820Z,4.50
2019-04-03T15:13:59.903Z,9.38
2019-04-03T15:16:29.331Z,6.65
2019-04-03T15:19:01.941Z,3.77
2019-04-03T15:21:30.674Z,3.62
2019-04-03T15:23:59.887Z,11.38
2019-04-03T15:26:29.246Z,7.55
2019-04-03T15:29:01.226Z,4.75
2019-04-03T15:31:29.173Z,4.15
2019-04-03T15:33:58.258Z,2.75
2019-04-03T15:36:27.673Z,4.00
2019-04-03T15:38:58.740Z,2.55
2019-04-03T15:41:30.466Z,5.72
2019-04-03T15:43:58.185Z,6.92
2019-04-03T15:46:29.219Z,6.33
2019-04-03T15:48:58.007Z,7.33
2019-04-03T15:51:26.959Z,6.28
2019-04-03T15:53:57.037Z,3.95
2019-04-03T15:56:26.887Z,4.47
2019-04-03T15:58:58.283Z,3.40
2019-04-03T16:01:26.771Z,4.90
2019-04-03T16:03:58.542Z,5.10
2019-04-03T16:06:26.663Z,6.37
2019-04-03T16:08:55.633Z,4.42
2019-04-03T16:11:24.672Z,2.15
2019-04-03T16:13:53.680Z,6.03
2019-04-03T16:16:22.836Z,5.17
2019-04-03T16:19:21.291Z,4.67
2019-04-03T16:21:56.230Z,2.25
2019-04-03T16:24:48.871Z,4.50
2019-04-03T16:28:01.313Z,2.15
2019-04-03T16:30:52.542Z,3.33
2019-04-03T16:33:26.014Z,4.83
2019-04-03T16:42:21.365Z,1.70
2019-04-03T16:44:50.926Z,3.55
2019-04-03T16:47:20.082Z,2.05
2019-04-03T16:49:49.622Z,2.42
2019-04-03T16:52:18.839Z,3.37
2019-04-03T16:54:47.775Z,3.62
2019-04-03T16:57:16.927Z,3.20
2019-04-03T16:59:46.064Z,2.52
2019-04-03T17:02:16.121Z,4.50
2019-04-03T17:04:45.902Z,2.37
2019-04-03T17:07:14.963Z,3.12
2019-04-03T17:09:44.222Z,2.83
2019-04-03T17:12:13.387Z,4.87
2019-04-03T17:14:42.381Z,4.05
2019-04-03T17:17:14.163Z,1.95
2019-04-03T17:19:42.348Z,2.02
2019-04-03T17:22:11.722Z,3.08
2019-04-03T17:24:46.107Z,1.70
2019-04-03T17:27:11.648Z,3.40
2019-04-03T17:29:40.667Z,3.35
2019-04-03T17:32:09.832Z,1.77
2019-04-03T17:34:42.050Z,4.47
2019-04-03T17:37:09.450Z,4.72
2019-04-03T17:39:38.540Z,3.85
2019-04-03T17:42:08.732Z,4.20
2019-04-03T17:44:38.506Z,5.70
2019-04-03T17:47:07.730Z,1.55
2019-04-03T17:49:36.732Z,3.12
2019-04-03T17:52:05.889Z,3.22
2019-04-03T17:54:34.981Z,2.87
2019-04-03T17:57:04.123Z,2.15
2019-04-03T17:59:33.215Z,1.82
2019-04-03T18:02:02.383Z,2.42
2019-04-03T18:04:31.307Z,3.83
2019-04-03T18:07:00.483Z,1.92
2019-04-03T18:09:29.598Z,2.40
2019-04-03T18:11:58.992Z,3.50
2019-04-03T18:14:28.075Z,1.45
2019-04-03T18:16:57.094Z,5.50
2019-04-03T18:19:36.775Z,1.98
2019-04-03T18:21:56.917Z,2.67
2019-04-03T18:24:25.835Z,5.83
2019-04-03T18:26:54.911Z,3.42
2019-04-03T18:29:24.477Z,2.52
2019-04-03T18:31:53.839Z,3.65
2019-04-03T18:34:23.002Z,2.40
2019-04-03T18:36:52.084Z,4.10
2019-04-03T18:39:21.266Z,4.15
2019-04-03T18:41:50.406Z,5.20
2019-04-03T18:46:50.335Z,2.37
2019-04-03T18:47:16.103Z,3.42
2019-04-03T18:49:19.575Z,4.42
2019-04-03T18:51:48.633Z,5.65
2019-04-03T18:54:17.716Z,3.30
2019-04-03T18:57:19.217Z,2.50
2019-04-03T19:00:18.031Z,4.25
2019-04-03T19:03:09.650Z,5.30
2019-04-03T19:06:01.269Z,2.65
2019-04-03T19:08:36.595Z,3.50
2019-04-03T19:14:27.643Z,2.00
2019-04-03T19:17:22.958Z,2.00
2019-04-03T19:20:12.060Z,3.52
2019-04-03T19:23:01.601Z,4.97
2019-04-03T19:25:22.115Z,2.87
2019-04-03T19:27:57.530Z,2.17
2019-04-03T19:30:28.607Z,4.50
2019-04-03T19:32:58.646Z,2.90
2019-04-03T19:35:31.607Z,3.75
2019-04-03T19:38:13.214Z,2.67
2019-04-03T19:40:54.778Z,3.45
2019-04-03T19:43:50.860Z,2.80
2019-04-03T19:46:46.158Z,2.75
2019-04-03T19:49:23.571Z,3.55
2019-04-03T19:51:59.352Z,4.67
2019-04-03T19:54:47.131Z,2.20
2019-04-03T19:58:10.616Z,2.22
2019-04-03T20:03:32.444Z,3.27
2019-04-03T20:06:04.180Z,2.00
2019-04-03T20:08:40.090Z,2.33
2019-04-03T20:11:38.113Z,4.90
2019-04-03T20:14:29.774Z,1.55
2019-04-03T20:17:02.530Z,2.92
2019-04-03T20:20:08.155Z,9.43
2019-04-03T20:23:05.605Z,6.70
2019-04-03T20:25:47.391Z,11.83
2019-04-03T20:32:14.211Z,8.45
2019-04-03T20:34:57.152Z,10.15
2019-04-03T20:37:29.975Z,11.05
2019-04-03T20:40:00.497Z,13.22
2019-04-03T20:42:30.564Z,11.83
2019-04-03T20:45:03.352Z,8.20
2019-04-03T20:47:36.700Z,9.70
2019-04-03T20:50:40.643Z,10.15
2019-04-03T20:53:16.922Z,11.28
2019-04-03T20:55:49.047Z,8.20
2019-04-03T20:58:22.736Z,7.80
2019-04-03T21:03:49.146Z,7.95
2019-04-03T21:06:41.530Z,8.95
2019-04-03T21:09:10.970Z,8.33
2019-04-03T21:11:44.753Z,7.90
2019-04-03T21:14:19.070Z,8.08
2019-04-03T21:16:48.520Z,8.18
2019-04-03T21:19:21.223Z,8.08
2019-04-03T21:22:05.917Z,8.98
2019-04-03T21:24:49.812Z,7.78
2019-04-03T21:27:56.701Z,9.75
2019-04-03T21:30:23.892Z,8.00
2019-04-03T21:33:08.853Z,8.28
2019-04-03T21:36:06.910Z,8.23
2019-04-03T21:38:49.922Z,8.60
2019-04-03T21:41:28.370Z,8.58
2019-04-03T21:44:14.195Z,9.28
2019-04-03T21:47:14.492Z,7.37
2019-04-03T21:49:52.467Z,7.30
2019-04-03T21:52:46.884Z,6.83
2019-04-03T21:55:25.532Z,8.28
2019-04-03T21:57:55.185Z,6.92
2019-04-03T22:01:17.736Z,6.65
2019-04-03T22:03:50.547Z,6.53
2019-04-03T22:06:19.219Z,6.17
2019-04-03T22:08:51.373Z,6.17
2019-04-03T22:11:20.315Z,5.62
2019-04-03T22:13:49.975Z,6.20
2019-04-03T22:16:20.313Z,5.75
2019-04-03T22:18:50.253Z,6.65
2019-04-03T22:21:20.047Z,5.87
2019-04-03T22:23:49.809Z,6.47
2019-04-03T22:26:20.602Z,5.83
2019-04-03T22:28:49.947Z,5.80
2019-04-03T22:31:20.967Z,6.53
2019-04-03T22:33:50.913Z,6.67
2019-04-03T22:36:20.726Z,7.08
2019-04-03T22:38:50.398Z,5.92
2019-04-03T22:41:20.246Z,6.53
2019-04-03T22:43:53.021Z,6.72
2019-04-03T22:46:22.650Z,6.28
2019-04-03T22:48:52.185Z,8.20
2019-04-03T22:51:21.528Z,6.55
2019-04-03T22:54:15.968Z,5.72
2019-04-03T22:56:45.920Z,5.10
2019-04-03T22:59:16.079Z,5.12
2019-04-03T23:01:45.236Z,5.47
2019-04-03T23:04:27.511Z,5.55
2019-04-03T23:07:21.819Z,6.12
2019-04-03T23:10:02.985Z,6.12
2019-04-03T23:12:49.588Z,5.60
2019-04-03T23:15:28.407Z,5.55
2019-04-03T23:18:02.951Z,6.03
2019-04-03T23:20:36.670Z,6.03
2019-04-03T23:23:20.270Z,7.72
2019-04-03T23:25:52.345Z,6.28
2019-04-03T23:28:45.398Z,8.80
2019-04-03T23:33:43.866Z,6.53
2019-04-03T23:36:13.526Z,6.25
2019-04-03T23:38:43.248Z,6.15
2019-04-03T23:41:13.126Z,6.35
2019-04-03T23:43:43.684Z,6.42
2019-04-03T23:46:14.699Z,6.15
2019-04-03T23:48:47.016Z,6.80
2019-04-03T23:51:22.993Z,6.12
2019-04-03T23:53:50.039Z,5.70
2019-04-03T23:56:19.881Z,6.08
2019-04-03T23:58:49.695Z,5.40
